createdAt,value
2023-01-28T00:02:01.542Z,23.50
2023-01-28T00:04:28.518Z,22.80
2023-01-28T00:06:55.693Z,21.00
2023-01-28T00:09:22.389Z,23.90
2023-01-28T00:11:49.063Z,24.50
2023-01-28T00:14:15.809Z,22.10
2023-01-28T00:16:43.155Z,23.70
2023-01-28T00:19:10.121Z,23.60
2023-01-28T00:21:36.755Z,24.70
2023-01-28T00:24:03.852Z,23.50
2023-01-28T00:26:30.785Z,24.60
2023-01-28T00:28:57.432Z,22.80
2023-01-28T00:31:25.493Z,23.30
2023-01-28T00:33:54.323Z,23.40
2023-01-28T00:41:14.694Z,24.60
2023-01-28T00:43:44.821Z,23.20
2023-01-28T00:46:13.298Z,23.90
2023-01-28T00:48:41.406Z,24.10
2023-01-28T00:51:12.663Z,25.20
2023-01-28T00:53:39.999Z,23.30
2023-01-28T00:56:07.684Z,24.90
2023-01-28T01:03:23.290Z,23.00
2023-01-28T01:05:50.386Z,23.90
2023-01-28T01:08:19.735Z,25.40
2023-01-28T01:10:47.002Z,25.40
2023-01-28T01:13:13.938Z,24.90
2023-01-28T01:15:41.955Z,24.70
2023-01-28T01:18:09.371Z,22.60
2023-01-28T01:20:39.295Z,23.80
2023-01-28T01:23:06.035Z,25.10
2023-01-28T01:25:32.669Z,25.50
2023-01-28T01:27:59.835Z,26.10
2023-01-28T01:30:26.923Z,25.30
2023-01-28T01:32:54.490Z,25.50
2023-01-28T01:35:21.288Z,23.30
2023-01-28T01:37:48.582Z,21.40
2023-01-28T01:40:15.523Z,26.20
2023-01-28T01:42:43.300Z,26.30
2023-01-28T01:45:13.855Z,24.70
2023-01-28T01:47:47.786Z,25.20
2023-01-28T01:52:41.020Z,27.30
2023-01-28T01:55:11.579Z,28.50
2023-01-28T01:57:38.274Z,40.40
2023-01-28T02:00:05.993Z,30.70
2023-01-28T02:02:43.007Z,27.50
2023-01-28T02:05:11.049Z,28.10
2023-01-28T02:07:38.076Z,26.30
2023-01-28T02:10:05.364Z,26.30
2023-01-28T02:12:37.034Z,25.70
2023-01-28T02:15:09.814Z,24.80
2023-01-28T02:17:38.656Z,23.50
2023-01-28T02:20:06.385Z,25.90
2023-01-28T02:27:53.873Z,22.90
2023-01-28T02:30:33.142Z,25.10
2023-01-28T02:33:06.293Z,24.80
2023-01-28T02:38:16.587Z,24.50
2023-01-28T02:41:08.279Z,27.10
2023-01-28T02:43:45.729Z,25.00
2023-01-28T02:46:37.642Z,26.60
2023-01-28T02:49:05.968Z,27.00
2023-01-28T02:51:48.071Z,28.40
2023-01-28T02:54:45.333Z,27.80
2023-01-28T03:02:12.789Z,25.80
2023-01-28T03:04:59.687Z,26.00
2023-01-28T03:07:27.286Z,29.70
2023-01-28T03:09:58.211Z,24.40
2023-01-28T03:12:44.609Z,27.10
2023-01-28T03:15:47.714Z,29.10
2023-01-28T03:18:46.858Z,28.10
2023-01-28T03:21:36.641Z,27.90
2023-01-28T03:24:36.101Z,27.50
2023-01-28T03:27:30.149Z,27.70
2023-01-28T03:30:22.144Z,27.00
2023-01-28T03:33:08.145Z,25.60
2023-01-28T03:35:53.818Z,27.90
2023-01-28T03:38:22.302Z,25.90
2023-01-28T03:40:51.451Z,28.80
2023-01-28T03:43:18.702Z,27.60
2023-01-28T03:50:12.007Z,25.10
2023-01-28T03:52:50.548Z,26.40
2023-01-28T03:55:25.489Z,30.20
2023-01-28T03:57:53.099Z,39.50
2023-01-28T04:00:21.302Z,49.00
2023-01-28T04:02:49.557Z,34.00
2023-01-28T04:05:21.521Z,33.20
2023-01-28T04:07:55.858Z,29.80
2023-01-28T04:10:41.497Z,30.10
2023-01-28T04:13:30.083Z,33.80
2023-01-28T04:25:16.867Z,28.70
2023-01-28T04:27:46.734Z,29.70
2023-01-28T04:30:23.043Z,28.40
2023-01-28T04:33:22.652Z,30.20
2023-01-28T04:35:59.718Z,27.20
2023-01-28T04:39:02.483Z,28.90
2023-01-28T04:41:38.519Z,29.10
2023-01-28T04:44:31.581Z,28.40
2023-01-28T04:47:24.110Z,27.30
2023-01-28T04:50:25.716Z,27.40
2023-01-28T04:53:12.556Z,28.20
2023-01-28T04:55:57.603Z,27.00
2023-01-28T04:58:28.569Z,28.70
2023-01-28T05:01:04.648Z,27.10
2023-01-28T05:10:19.888Z,28.70
2023-01-28T05:12:48.918Z,29.90
2023-01-28T05:15:18.838Z,28.20
2023-01-28T05:17:47.538Z,30.70
2023-01-28T05:20:18.253Z,29.00
2023-01-28T05:22:48.321Z,28.20
2023-01-28T05:25:20.450Z,30.90
2023-01-28T05:27:51.904Z,28.40
2023-01-28T05:30:20.837Z,29.90
2023-01-28T05:32:49.916Z,29.00
2023-01-28T05:35:23.243Z,30.30
2023-01-28T05:37:51.480Z,30.50
2023-01-28T05:40:20.739Z,29.50
2023-01-28T05:42:48.928Z,29.60
2023-01-28T05:45:47.817Z,32.10
2023-01-28T05:48:38.911Z,28.10
2023-01-28T05:51:06.858Z,28.00
2023-01-28T05:53:37.691Z,29.60
2023-01-28T05:56:06.696Z,31.50
2023-01-28T05:58:35.256Z,29.60
2023-01-28T06:01:05.698Z,31.10
2023-01-28T08:17:53.758Z,37.90
2023-01-28T08:20:22.963Z,129.50
2023-01-28T08:22:51.138Z,170.80
2023-01-28T08:25:19.247Z,157.60
2023-01-28T08:27:48.161Z,53.00
2023-01-28T08:30:17.538Z,48.20
2023-01-28T08:32:45.791Z,34.90
2023-01-28T08:35:17.840Z,28.60
2023-01-28T08:37:46.390Z,27.90
2023-01-28T08:40:14.885Z,29.00
2023-01-28T08:42:48.719Z,30.20
2023-01-28T08:45:17.192Z,28.30
2023-01-28T08:48:05.232Z,27.10
2023-01-28T08:50:35.595Z,28.40
2023-01-28T08:53:05.500Z,25.30
2023-01-28T08:55:34.072Z,28.00
2023-01-28T08:58:10.396Z,26.00
2023-01-28T09:00:39.181Z,26.90
2023-01-28T09:03:07.534Z,24.10
2023-01-28T09:05:37.561Z,26.30
2023-01-28T09:08:10.938Z,31.10
2023-01-28T09:10:39.421Z,25.70
2023-01-28T09:13:09.711Z,25.10
2023-01-28T09:15:37.896Z,26.40
2023-01-28T09:18:06.107Z,25.20
2023-01-28T09:20:46.015Z,25.30
2023-01-28T09:23:14.202Z,26.10
2023-01-28T09:25:42.308Z,25.40
2023-01-28T09:28:10.373Z,25.30
2023-01-28T09:30:39.731Z,24.30
2023-01-28T09:33:08.207Z,25.30
2023-01-28T09:35:37.028Z,27.10
2023-01-28T09:38:05.796Z,27.90
2023-01-28T09:40:37.283Z,26.00
2023-01-28T09:43:13.451Z,32.70
2023-01-28T09:45:48.572Z,29.90
2023-01-28T09:48:22.078Z,24.80
2023-01-28T09:50:53.904Z,27.30
2023-01-28T09:53:30.497Z,30.10
2023-01-28T09:56:06.227Z,24.60
2023-01-28T09:58:35.307Z,24.70
2023-01-28T10:01:45.534Z,24.50
2023-01-28T10:04:23.403Z,26.30
2023-01-28T10:06:55.362Z,23.00
2023-01-28T10:09:51.303Z,22.60
2023-01-28T10:12:23.931Z,25.80
2023-01-28T10:15:13.909Z,25.30
2023-01-28T10:17:46.171Z,25.50
2023-01-28T10:20:20.866Z,26.10
2023-01-28T10:23:14.595Z,23.10
2023-01-28T10:25:45.134Z,21.30
2023-01-28T10:28:21.165Z,25.20
2023-01-28T10:30:49.554Z,19.80
2023-01-28T10:33:28.197Z,23.80
2023-01-28T10:35:56.663Z,22.00
2023-01-28T10:38:26.053Z,21.30
2023-01-28T10:40:56.186Z,20.80
2023-01-28T10:43:25.086Z,21.80
2023-01-28T10:46:13.258Z,20.40
2023-01-28T10:48:44.574Z,23.60
2023-01-28T10:51:12.653Z,21.10
2023-01-28T10:53:45.229Z,22.00
2023-01-28T10:56:27.311Z,18.80
2023-01-28T10:59:07.001Z,19.40
2023-01-28T11:01:55.748Z,21.90
2023-01-28T11:04:26.748Z,21.30
2023-01-28T11:07:00.657Z,23.10
2023-01-28T11:09:31.324Z,23.60
2023-01-28T11:11:59.965Z,26.60
2023-01-28T11:14:28.649Z,30.90
2023-01-28T11:16:58.025Z,27.70
2023-01-28T11:19:31.365Z,25.40
2023-01-28T11:22:02.567Z,25.70
2023-01-28T11:24:32.221Z,26.10
2023-01-28T11:27:17.662Z,24.50
2023-01-28T11:29:45.906Z,25.30
2023-01-28T11:32:19.160Z,26.90
2023-01-28T11:34:51.899Z,24.30
2023-01-28T11:37:22.888Z,25.00
2023-01-28T11:40:20.051Z,26.30
2023-01-28T11:42:53.993Z,25.20
2023-01-28T11:45:47.642Z,23.50
2023-01-28T11:48:25.086Z,22.80
2023-01-28T11:51:04.931Z,23.40
2023-01-28T11:53:46.556Z,22.50
2023-01-28T11:56:54.177Z,27.60
2023-01-28T11:59:28.827Z,26.70
2023-01-28T14:15:55.041Z,23.80
2023-01-28T14:18:36.873Z,23.60
2023-01-28T14:21:11.577Z,22.60
2023-01-28T14:23:45.350Z,29.00
2023-01-28T14:26:35.774Z,55.40
2023-01-28T14:29:58.170Z,34.20
2023-01-28T14:32:28.713Z,30.10
2023-01-28T14:35:02.264Z,28.60
2023-01-28T14:37:31.846Z,46.70
2023-01-28T14:40:04.843Z,32.70
2023-01-28T14:42:40.182Z,29.60
2023-01-28T14:45:24.428Z,27.40
2023-01-28T14:48:07.031Z,27.20
2023-01-28T14:50:52.496Z,26.60
2023-01-28T14:53:35.530Z,24.90
2023-01-28T14:56:36.347Z,26.10
2023-01-28T14:59:35.421Z,27.70
2023-01-28T15:02:12.919Z,27.30
2023-01-28T15:04:41.056Z,27.40
2023-01-28T15:07:27.458Z,24.40
2023-01-28T15:10:03.502Z,24.80
2023-01-28T15:12:38.087Z,24.90
2023-01-28T15:15:17.441Z,24.90
2023-01-28T15:17:46.849Z,29.10
2023-01-28T15:20:24.860Z,27.80
2023-01-28T15:22:53.032Z,24.50
2023-01-28T15:25:22.917Z,25.80
2023-01-28T15:27:51.978Z,24.40
2023-01-28T15:30:32.986Z,27.60
2023-01-28T15:33:06.746Z,26.80
2023-01-28T15:35:35.986Z,25.10
2023-01-28T15:38:05.169Z,25.20
2023-01-28T15:40:41.459Z,26.10
2023-01-28T15:43:20.017Z,26.40
2023-01-28T15:45:55.451Z,29.90
2023-01-28T15:48:29.263Z,27.30
2023-01-28T15:51:04.997Z,28.40
2023-01-28T15:53:56.265Z,27.00
2023-01-28T15:56:27.245Z,28.40
2023-01-28T15:58:56.394Z,29.60
2023-01-28T16:01:27.112Z,26.30
2023-01-28T16:04:03.348Z,28.20
2023-01-28T16:06:36.434Z,25.20
2023-01-28T16:09:20.071Z,25.40
2023-01-28T16:11:48.140Z,26.50
2023-01-28T16:14:25.280Z,27.90
2023-01-28T16:16:57.904Z,24.80
2023-01-28T16:19:37.201Z,25.10
2023-01-28T16:22:06.154Z,25.10
2023-01-28T16:24:38.118Z,26.80
2023-01-28T16:27:18.193Z,24.10
2023-01-28T16:29:46.277Z,24.00
2023-01-28T16:32:33.052Z,22.50
2023-01-28T16:35:01.322Z,35.60
2023-01-28T16:37:29.656Z,30.80
2023-01-28T16:39:59.133Z,27.20
2023-01-28T16:42:31.666Z,27.20
2023-01-28T16:44:59.787Z,24.80
2023-01-28T16:47:28.693Z,25.50
2023-01-28T16:49:57.217Z,24.70
2023-01-28T16:52:25.517Z,25.30
2023-01-28T16:54:53.506Z,22.00
2023-01-28T16:57:21.604Z,23.50
2023-01-28T16:59:49.953Z,24.30
2023-01-28T17:02:18.085Z,24.50
2023-01-28T17:04:48.209Z,21.30
2023-01-28T17:07:19.135Z,22.40
2023-01-28T17:09:48.592Z,24.40
2023-01-28T17:12:16.876Z,25.60
2023-01-28T17:14:45.038Z,24.50
2023-01-28T17:17:13.058Z,25.00
2023-01-28T17:19:43.746Z,21.80
2023-01-28T17:22:12.156Z,23.30
2023-01-28T17:24:40.396Z,20.80
2023-01-28T17:27:09.878Z,22.10
2023-01-28T17:29:38.795Z,23.40
2023-01-28T17:32:06.990Z,22.80
2023-01-28T17:34:35.838Z,23.90
2023-01-28T17:37:05.779Z,23.30
2023-01-28T17:39:34.126Z,21.20
2023-01-28T17:42:02.131Z,24.30
2023-01-28T17:44:30.189Z,24.90
2023-01-28T17:46:58.179Z,23.80
2023-01-28T17:49:26.416Z,24.60
2023-01-28T17:51:54.613Z,21.70
2023-01-28T17:54:24.182Z,25.90
2023-01-28T17:56:52.334Z,27.00
2023-01-28T17:59:21.876Z,23.10
2023-01-28T20:11:07.305Z,27.90
2023-01-28T20:13:35.235Z,27.30
2023-01-28T20:16:20.283Z,27.40
2023-01-28T20:18:54.476Z,25.30
2023-01-28T20:21:21.598Z,26.90
2023-01-28T20:23:49.480Z,26.70
2023-01-28T20:26:17.333Z,28.30
2023-01-28T20:28:44.267Z,27.30
2023-01-28T20:31:11.016Z,27.40
2023-01-28T20:33:38.558Z,28.20
2023-01-28T20:36:10.575Z,27.50
2023-01-28T20:38:42.327Z,29.60
2023-01-28T20:41:14.775Z,30.30
2023-01-28T20:43:42.948Z,30.10
2023-01-28T20:46:11.781Z,33.70
2023-01-28T20:48:38.861Z,30.30
2023-01-28T20:51:20.079Z,30.20
2023-01-28T20:53:47.660Z,31.60
2023-01-28T20:56:16.547Z,26.80
2023-01-28T20:58:44.233Z,31.50
2023-01-28T21:01:24.941Z,30.10
2023-01-28T21:03:52.217Z,29.30
2023-01-28T21:06:19.271Z,32.70
2023-01-28T21:08:46.404Z,30.80
2023-01-28T21:11:13.491Z,30.90
2023-01-28T21:13:40.838Z,31.70
2023-01-28T21:16:07.630Z,29.40
2023-01-28T21:18:34.845Z,30.90
2023-01-28T21:21:07.703Z,30.50
2023-01-28T21:23:34.816Z,31.40
2023-01-28T21:26:02.902Z,36.20
2023-01-28T21:28:30.051Z,32.40
2023-01-28T21:31:05.422Z,31.10
2023-01-28T21:33:33.231Z,30.90
2023-01-28T21:35:59.941Z,29.70
2023-01-28T21:38:26.984Z,33.50
2023-01-28T21:41:01.714Z,32.50
2023-01-28T21:43:28.697Z,31.00
2023-01-28T21:45:56.079Z,30.00
2023-01-28T21:48:24.108Z,33.10
2023-01-28T21:51:09.823Z,29.70
2023-01-28T21:53:40.593Z,30.60
2023-01-28T21:56:08.305Z,29.70
2023-01-28T21:58:56.204Z,33.00
2023-01-28T22:01:24.715Z,29.00
2023-01-28T22:03:51.555Z,31.70
2023-01-28T22:06:18.220Z,32.90
2023-01-28T22:08:45.648Z,32.20
2023-01-28T22:11:13.056Z,28.90
2023-01-28T22:13:40.239Z,30.40
2023-01-28T22:16:07.292Z,28.50
2023-01-28T22:18:35.160Z,30.00
2023-01-28T22:21:06.730Z,28.50
2023-01-28T22:23:34.326Z,26.40
2023-01-28T22:26:01.730Z,29.30
2023-01-28T22:28:29.294Z,26.30
2023-01-28T22:31:07.526Z,29.30
2023-01-28T22:33:34.792Z,31.60
2023-01-28T22:36:05.490Z,30.00
2023-01-28T22:38:32.565Z,37.10
2023-01-28T22:41:06.466Z,30.90
2023-01-28T22:43:33.421Z,25.20
2023-01-28T22:46:00.977Z,26.70
2023-01-28T22:48:28.156Z,27.00
2023-01-28T22:51:02.360Z,30.00
2023-01-28T22:53:29.625Z,26.70
2023-01-28T22:55:56.346Z,24.00
2023-01-28T22:58:24.064Z,26.20
2023-01-28T23:00:51.523Z,25.80
2023-01-28T23:03:18.267Z,24.40
2023-01-28T23:05:45.102Z,30.00
2023-01-28T23:08:11.906Z,29.60
2023-01-28T23:10:39.891Z,24.20
2023-01-28T23:13:07.224Z,24.40
2023-01-28T23:15:53.162Z,24.30
2023-01-28T23:18:47.893Z,19.90
2023-01-28T23:21:39.814Z,18.90
2023-01-28T23:24:21.121Z,20.00
2023-01-28T23:26:56.300Z,20.70
2023-01-28T23:29:27.193Z,20.20
2023-01-28T23:32:00.583Z,19.40
2023-01-28T23:34:31.036Z,19.70
2023-01-28T23:36:58.721Z,21.20
2023-01-28T23:39:25.923Z,17.10
2023-01-28T23:41:53.180Z,16.60
2023-01-28T23:44:25.358Z,19.00
2023-01-28T23:46:53.149Z,19.70
2023-01-28T23:49:20.318Z,20.00
2023-01-28T23:51:47.141Z,20.60
2023-01-28T23:54:13.965Z,19.50
2023-01-28T23:56:40.563Z,21.90
2023-01-28T23:59:07.165Z,22.60
